Jacksonville, Texas
Current Conditions -  °F | °C
As of 10:55 PM on Sunday 21 Dec 2014 (Local Time) from KJSO Reporting Station
Overcast Overcast  
Wind Chill: 10°   Ceiling: 2900
Heat Index: 10°   Visibility: 10mi
Dew Point:   Wind: 7mph
Humidity: 92%   Direction: 170°S
Pressure: 29.85"   Gusts: NA
Location:  31.96°N, 95.27°W
Report Text: KJSO 220455Z AUTO 17006KT 10SM SCT023 OVC029 10/08 A2985 RMK AO2 T01030090
Loading
Personal Weather Stations






























Interactive Weather Map New forecast layout! Learn more

10-Day Weather Forecast

Advertisements
Track Severe Weather on mobile